Rindge, New Hampshire
Current Conditions -  °F | °C
As of 10:52 AM on Friday 24 Oct 2014 (Local Time) from KAFN Reporting Station
Overcast Overcast  
Wind Chill: 42°   Ceiling: 1100
Heat Index: 45°   Visibility: 10mi
Dew Point: 41°   Wind: 6mph
Humidity: 86%   Direction: NA
Pressure: 29.75"   Gusts: NA
Location:  42.75°N, 72.01°W
Report Text: KAFN 241452Z AUTO VRB05KT 10SM OVC011 07/05 A2975 RMK AO2 SLP082 T00720050 50004
Loading
Personal Weather Stations






























Interactive Weather Map
Tropical Storm Tracking
New forecast layout! Learn more

10-Day Weather Forecast

Advertisements
Track Severe Weather on mobile